createdAt,value
2022-11-16T00:02:12.722Z,99412.50
2022-11-16T00:04:39.301Z,99399.44
2022-11-16T00:07:06.198Z,99394.50
2022-11-16T00:09:33.486Z,99403.03
2022-11-16T00:12:02.618Z,99399.72
2022-11-16T00:14:33.337Z,99393.69
2022-11-16T00:17:00.632Z,99393.31
2022-11-16T00:19:27.745Z,99387.53
2022-11-16T00:21:54.760Z,99374.25
2022-11-16T00:24:22.399Z,99375.50
2022-11-16T00:26:49.004Z,99385.69
2022-11-16T00:29:17.733Z,99378.84
2022-11-16T00:31:45.412Z,99388.22
2022-11-16T00:34:12.075Z,99378.66
2022-11-16T00:36:38.451Z,99377.84
2022-11-16T00:39:05.177Z,99379.94
2022-11-16T00:41:31.492Z,99370.41
2022-11-16T00:43:57.804Z,99365.22
2022-11-16T00:46:24.176Z,99374.16
2022-11-16T00:48:50.508Z,99360.03
2022-11-16T00:51:16.917Z,99372.72
2022-11-16T00:53:43.265Z,99366.50
2022-11-16T00:56:09.621Z,99368.38
2022-11-16T00:58:36.487Z,99361.53
2022-11-16T01:01:07.858Z,99349.88
2022-11-16T01:03:35.452Z,99355.72
2022-11-16T01:06:07.616Z,99354.06
2022-11-16T01:08:36.345Z,99350.56
2022-11-16T01:11:22.060Z,99343.72
2022-11-16T01:13:48.702Z,99340.41
2022-11-16T01:16:16.649Z,99348.69
2022-11-16T01:18:44.054Z,99339.38
2022-11-16T01:21:10.517Z,99339.56
2022-11-16T01:23:37.038Z,99347.06
2022-11-16T01:26:03.386Z,99342.09
2022-11-16T01:28:31.155Z,99345.84
2022-11-16T01:30:57.866Z,99342.53
2022-11-16T01:33:24.483Z,99340.06
2022-11-16T01:35:50.880Z,99341.91
2022-11-16T01:38:17.715Z,99341.31
2022-11-16T01:40:44.082Z,99328.84
2022-11-16T01:43:19.451Z,99327.22
2022-11-16T01:45:46.310Z,99328.47
2022-11-16T01:48:16.440Z,99318.13
2022-11-16T01:50:45.226Z,99321.00
2022-11-16T01:53:13.009Z,99313.34
2022-11-16T01:55:42.265Z,99311.09
2022-11-16T01:58:13.975Z,99304.03
2022-11-16T02:00:40.381Z,99299.06
2022-11-16T02:03:06.756Z,99294.13
2022-11-16T02:05:49.090Z,99296.19
2022-11-16T02:09:04.985Z,99289.34
2022-11-16T02:11:50.156Z,99282.75
2022-11-16T02:14:19.469Z,99277.78
2022-11-16T02:17:09.518Z,99270.97
2022-11-16T02:20:15.064Z,99267.66
2022-11-16T02:23:22.421Z,99268.91
2022-11-16T02:26:18.128Z,99265.97
2022-11-16T02:29:16.107Z,99261.63
2022-11-16T02:31:54.172Z,99266.84
2022-11-16T02:34:22.816Z,99259.38
2022-11-16T02:36:53.126Z,99264.19
2022-11-16T02:39:24.440Z,99261.69
2022-11-16T02:41:53.016Z,99256.75
2022-11-16T02:44:24.621Z,99257.75
2022-11-16T02:46:57.158Z,99259.44
2022-11-16T02:49:26.484Z,99258.00
2022-11-16T02:51:54.332Z,99256.13
2022-11-16T02:54:22.498Z,99246.97
2022-11-16T02:57:04.206Z,99250.28
2022-11-16T02:59:39.409Z,99255.69
2022-11-16T03:02:11.553Z,99247.59
2022-11-16T03:05:00.996Z,99242.22
2022-11-16T03:07:33.555Z,99243.03
2022-11-16T03:10:00.487Z,99245.13
2022-11-16T03:12:31.093Z,99245.97
2022-11-16T03:14:59.934Z,99246.56
2022-11-16T03:17:31.210Z,99236.63
2022-11-16T03:20:12.845Z,99238.25
2022-11-16T03:22:44.167Z,99239.94
2022-11-16T03:25:13.889Z,99236.38
2022-11-16T03:28:01.897Z,99231.63
2022-11-16T03:30:31.310Z,99232.66
2022-11-16T03:33:20.039Z,99228.28
2022-11-16T03:35:59.580Z,99221.88
2022-11-16T03:38:28.460Z,99227.47
2022-11-16T03:40:59.948Z,99232.03
2022-11-16T03:43:27.443Z,99229.34
2022-11-16T03:45:54.426Z,99230.41
2022-11-16T03:48:20.776Z,99223.97
2022-11-16T03:50:47.217Z,99226.66
2022-11-16T03:53:13.555Z,99221.25
2022-11-16T03:55:39.939Z,99218.56
2022-11-16T03:58:06.434Z,99220.44
2022-11-16T04:00:32.969Z,99212.34
2022-11-16T04:02:59.373Z,99213.19
2022-11-16T04:05:44.382Z,99215.88
2022-11-16T04:08:34.562Z,99222.72
2022-11-16T04:11:19.517Z,99213.78
2022-11-16T04:14:08.959Z,99212.97
2022-11-16T04:17:01.955Z,99214.22
2022-11-16T04:19:46.739Z,99202.59
2022-11-16T04:22:37.240Z,99212.56
2022-11-16T04:25:10.542Z,99218.38
2022-11-16T04:27:55.633Z,99216.13
2022-11-16T04:30:22.137Z,99210.13
2022-11-16T04:33:07.619Z,99227.53
2022-11-16T04:35:52.488Z,99228.59
2022-11-16T04:38:18.848Z,99235.84
2022-11-16T04:40:45.259Z,99228.78
2022-11-16T04:43:11.596Z,99235.84
2022-11-16T04:45:56.358Z,99230.47
2022-11-16T04:48:22.802Z,99224.22
2022-11-16T04:50:49.181Z,99224.22
2022-11-16T04:53:15.614Z,99229.63
2022-11-16T04:55:41.980Z,99234.19
2022-11-16T04:58:08.350Z,99225.28
2022-11-16T05:00:34.709Z,99222.59
2022-11-16T05:03:01.899Z,99221.75
2022-11-16T05:05:28.619Z,99214.69
2022-11-16T05:07:55.544Z,99218.25
2022-11-16T05:10:22.236Z,99220.31
2022-11-16T05:12:48.589Z,99223.00
2022-11-16T05:15:17.476Z,99224.88
2022-11-16T05:17:43.836Z,99219.69
2022-11-16T05:20:29.462Z,99222.59
2022-11-16T05:22:57.283Z,99223.44
2022-11-16T05:25:24.028Z,99217.44
2022-11-16T05:27:50.438Z,99214.94
2022-11-16T05:30:16.968Z,99216.00
2022-11-16T05:32:44.008Z,99227.59
2022-11-16T05:35:10.598Z,99228.84
2022-11-16T05:37:36.946Z,99227.19
2022-11-16T05:40:03.954Z,99231.78
2022-11-16T05:42:30.338Z,99235.47
2022-11-16T05:44:56.695Z,99228.22
2022-11-16T05:47:23.038Z,99235.47
2022-11-16T05:49:49.432Z,99234.66
2022-11-16T05:52:15.766Z,99245.44
2022-11-16T05:54:42.096Z,99239.00
2022-11-16T05:57:08.437Z,99242.75
2022-11-16T05:59:34.870Z,99246.25
2022-11-16T06:02:01.229Z,99250.81
2022-11-16T06:04:27.620Z,99257.84
2022-11-16T06:06:57.149Z,99253.31
2022-11-16T06:09:23.492Z,99247.09
2022-11-16T06:11:49.851Z,99254.16
2022-11-16T06:14:16.221Z,99260.34
2022-11-16T06:16:42.593Z,99255.78
2022-11-16T06:19:08.932Z,99253.91
2022-11-16T06:21:35.265Z,99257.47
2022-11-16T06:24:02.601Z,99265.31
2022-11-16T06:26:28.966Z,99259.94
2022-11-16T06:28:55.351Z,99266.75
2022-11-16T06:31:22.263Z,99264.06
2022-11-16T06:33:48.666Z,99272.34
2022-11-16T06:36:15.067Z,99274.84
2022-11-16T06:38:41.417Z,99283.75
2022-11-16T06:41:07.826Z,99285.63
2022-11-16T06:43:34.161Z,99292.66
2022-11-16T06:46:00.532Z,99296.19
2022-11-16T06:48:26.954Z,99298.66
2022-11-16T06:50:53.799Z,99290.59
2022-11-16T06:53:23.556Z,99293.91
2022-11-16T06:55:55.291Z,99305.31
2022-11-16T06:58:21.813Z,99308.00
2022-11-16T07:00:48.190Z,99310.47
2022-11-16T07:03:14.560Z,99302.59
2022-11-16T07:05:42.015Z,99306.31
2022-11-16T07:08:08.529Z,99303.63
2022-11-16T07:10:35.037Z,99312.56
2022-11-16T07:13:03.368Z,99308.19
2022-11-16T07:15:30.429Z,99313.59
2022-11-16T07:17:56.961Z,99308.19
2022-11-16T07:20:23.957Z,99303.84
2022-11-16T07:23:02.234Z,99310.88
2022-11-16T07:25:29.452Z,99311.72
2022-11-16T07:27:57.843Z,99317.94
2022-11-16T07:30:24.202Z,99317.94
2022-11-16T07:32:50.537Z,99323.94
2022-11-16T07:35:17.005Z,99319.41
2022-11-16T07:37:43.385Z,99323.75
2022-11-16T07:40:10.053Z,99323.53
2022-11-16T07:42:36.381Z,99329.75
2022-11-16T07:45:02.733Z,99320.63
2022-11-16T07:47:29.057Z,99335.75
2022-11-16T07:49:55.393Z,99336.59
2022-11-16T07:52:21.725Z,99344.44
2022-11-16T07:54:48.058Z,99346.94
2022-11-16T07:57:14.408Z,99358.53
2022-11-16T07:59:40.822Z,99362.69
2022-11-16T08:02:09.132Z,99351.91
2022-11-16T08:04:35.586Z,99366.81
2022-11-16T08:07:01.944Z,99362.06
2022-11-16T08:09:28.303Z,99361.00
2022-11-16T08:11:54.870Z,99362.69
2022-11-16T08:14:21.241Z,99355.19
2022-11-16T08:16:47.666Z,99368.47
2022-11-16T08:19:14.059Z,99367.41
2022-11-16T08:21:40.420Z,99372.59
2022-11-16T08:24:07.053Z,99371.56
2022-11-16T08:26:33.474Z,99370.31
2022-11-16T08:28:59.882Z,99370.94
2022-11-16T08:31:28.455Z,99370.72
2022-11-16T08:33:56.507Z,99381.91
2022-11-16T08:36:23.009Z,99386.88
2022-11-16T08:38:51.195Z,99387.50
2022-11-16T08:41:19.264Z,99389.75
2022-11-16T08:43:47.226Z,99398.25
2022-11-16T08:46:14.536Z,99398.03
2022-11-16T08:48:41.846Z,99401.97
2022-11-16T08:51:18.907Z,99402.38
2022-11-16T08:53:48.185Z,99401.94
2022-11-16T08:56:15.539Z,99396.94
2022-11-16T08:58:56.783Z,99395.28
2022-11-16T09:01:27.254Z,99404.38
2022-11-16T09:03:54.377Z,99406.41
2022-11-16T09:06:21.709Z,99408.47
2022-11-16T09:08:48.138Z,99404.34
2022-11-16T09:11:18.067Z,99406.41
2022-11-16T09:13:46.195Z,99396.81
2022-11-16T09:16:16.657Z,99401.59
2022-11-16T09:18:45.520Z,99399.25
2022-11-16T09:21:11.874Z,99405.91
2022-11-16T09:23:38.225Z,99411.69
2022-11-16T09:26:05.636Z,99412.91
2022-11-16T09:28:32.932Z,99414.94
2022-11-16T09:31:02.077Z,99408.47
2022-11-16T09:33:30.271Z,99418.63
2022-11-16T09:36:01.796Z,99418.34
2022-11-16T09:38:46.623Z,99421.03
2022-11-16T09:41:14.885Z,99424.28
2022-11-16T09:43:53.717Z,99428.59
2022-11-16T09:46:32.958Z,99429.56
2022-11-16T09:49:02.732Z,99447.03
2022-11-16T09:51:32.465Z,99453.00
2022-11-16T09:54:05.893Z,99452.81
2022-11-16T09:56:36.695Z,99445.75
2022-11-16T09:59:13.553Z,99463.63
2022-11-16T10:02:08.047Z,99460.09
2022-11-16T10:04:40.322Z,99453.88
2022-11-16T10:07:19.940Z,99461.13
2022-11-16T10:09:52.546Z,99463.63
2022-11-16T10:12:54.102Z,99467.97
2022-11-16T10:15:44.325Z,99458.59
2022-11-16T10:18:28.676Z,99460.88
2022-11-16T10:21:13.688Z,99460.63
2022-11-16T10:24:11.991Z,99468.53
2022-11-16T10:26:55.176Z,99465.59
2022-11-16T10:29:24.216Z,99463.13
2022-11-16T10:32:22.045Z,99462.91
2022-11-16T10:34:52.847Z,99456.91
2022-11-16T10:37:20.238Z,99453.34
2022-11-16T10:39:53.249Z,99445.84
2022-11-16T10:42:36.434Z,99446.69
2022-11-16T10:45:15.484Z,99446.22
2022-11-16T10:47:58.790Z,99453.06
2022-11-16T10:50:26.000Z,99449.94
2022-11-16T10:52:52.374Z,99443.03
2022-11-16T10:55:21.838Z,99444.06
2022-11-16T10:58:03.503Z,99440.47
2022-11-16T11:00:51.848Z,99435.22
2022-11-16T11:03:31.716Z,99433.72
2022-11-16T11:05:58.599Z,99430.81
2022-11-16T11:08:32.750Z,99429.91
2022-11-16T11:11:24.847Z,99431.94
2022-11-16T11:14:10.139Z,99427.72
2022-11-16T11:16:37.924Z,99420.22
2022-11-16T11:19:18.443Z,99426.59
2022-11-16T11:21:45.119Z,99419.69
2022-11-16T11:24:43.252Z,99425.00
2022-11-16T11:27:03.826Z,99424.13
2022-11-16T11:29:33.036Z,99425.91
2022-11-16T11:32:13.186Z,99426.88
2022-11-16T11:34:43.516Z,99426.22
2022-11-16T11:37:22.809Z,99423.06
2022-11-16T11:40:05.092Z,99421.16
2022-11-16T11:42:31.745Z,99418.00
2022-11-16T11:45:03.328Z,99414.00
2022-11-16T11:47:59.776Z,99416.03
2022-11-16T11:50:47.847Z,99421.00
2022-11-16T11:53:24.435Z,99427.00
2022-11-16T11:55:58.728Z,99425.38
2022-11-16T11:58:35.481Z,99422.66
2022-11-16T12:01:10.788Z,99419.09
2022-11-16T12:03:46.262Z,99425.38
2022-11-16T12:06:42.633Z,99419.94
2022-11-16T12:09:16.425Z,99424.31
2022-11-16T12:12:14.878Z,99420.66
2022-11-16T12:15:18.998Z,99411.03
2022-11-16T12:17:57.437Z,99416.63
2022-11-16T12:20:42.564Z,99413.00
2022-11-16T12:23:16.146Z,99402.91
2022-11-16T12:26:07.140Z,99404.66
2022-11-16T12:28:55.399Z,99396.22
2022-11-16T12:31:43.277Z,99400.72
2022-11-16T12:34:10.036Z,99399.66
2022-11-16T12:36:47.712Z,99394.81
2022-11-16T12:39:20.423Z,99392.13
2022-11-16T12:42:12.206Z,99397.53
2022-11-16T12:45:08.320Z,99391.31
2022-11-16T12:47:51.068Z,99391.78
2022-11-16T12:50:36.145Z,99394.34
2022-11-16T12:53:17.803Z,99392.53
2022-11-16T12:55:56.808Z,99387.25
2022-11-16T12:58:33.498Z,99392.53
2022-11-16T13:01:25.741Z,99393.44
2022-11-16T13:04:01.213Z,99394.38
2022-11-16T13:06:36.567Z,99390.66
2022-11-16T13:09:10.381Z,99393.22
2022-11-16T13:11:44.409Z,99397.22
2022-11-16T13:14:19.311Z,99394.97
2022-11-16T13:16:47.340Z,99390.03
2022-11-16T13:19:16.002Z,99388.13
2022-11-16T13:21:54.905Z,99382.72
2022-11-16T13:24:44.789Z,99381.09
2022-11-16T13:27:32.453Z,99380.84
2022-11-16T13:30:49.948Z,99380.63
2022-11-16T13:33:27.893Z,99368.50
2022-11-16T13:35:54.413Z,99362.84
2022-11-16T13:38:51.918Z,99349.91
2022-11-16T13:41:30.115Z,99348.63
2022-11-16T13:43:57.089Z,99348.41
2022-11-16T13:46:53.984Z,99344.41
2022-11-16T13:49:41.467Z,99349.13
2022-11-16T13:52:23.231Z,99353.88
2022-11-16T13:54:54.521Z,99345.97
2022-11-16T13:57:25.952Z,99355.81
2022-11-16T13:59:56.286Z,99350.25
2022-11-16T14:02:30.940Z,99362.03
2022-11-16T14:05:02.906Z,99363.16
2022-11-16T14:07:47.144Z,99360.09
2022-11-16T14:10:33.807Z,99351.84
2022-11-16T14:13:01.365Z,99357.72
2022-11-16T14:15:36.159Z,99347.94
2022-11-16T14:18:22.494Z,99345.22
2022-11-16T14:20:56.063Z,99350.16
2022-11-16T14:23:41.071Z,99351.84
2022-11-16T14:26:14.085Z,99345.38
2022-11-16T14:29:13.318Z,99347.84
2022-11-16T14:31:56.715Z,99349.97
2022-11-16T14:34:32.522Z,99345.22
2022-11-16T14:37:00.306Z,99340.72
2022-11-16T14:39:46.160Z,99344.38
2022-11-16T14:42:26.949Z,99344.69
2022-11-16T14:45:02.433Z,99340.41
2022-11-16T14:47:32.202Z,99346.34
2022-11-16T14:49:58.618Z,99344.97
2022-11-16T14:52:45.178Z,99344.25
2022-11-16T14:55:20.675Z,99343.72
2022-11-16T14:57:47.118Z,99341.09
2022-11-16T15:00:20.916Z,99342.00
2022-11-16T15:02:52.077Z,99345.78
2022-11-16T15:05:23.556Z,99346.66
2022-11-16T15:07:53.074Z,99340.50
2022-11-16T15:10:22.936Z,99348.66
2022-11-16T15:12:51.655Z,99346.25
2022-11-16T15:15:27.525Z,99343.59
2022-11-16T15:17:59.736Z,99341.59
2022-11-16T15:20:33.278Z,99332.91
2022-11-16T15:23:01.320Z,99336.34
2022-11-16T15:25:41.414Z,99329.31
2022-11-16T15:28:26.509Z,99330.88
2022-11-16T15:30:55.790Z,99339.44
2022-11-16T15:33:29.093Z,99336.19
2022-11-16T15:35:55.882Z,99339.13
2022-11-16T15:38:32.353Z,99340.19
2022-11-16T15:41:02.050Z,99349.59
2022-11-16T15:43:44.822Z,99337.19
2022-11-16T15:46:17.635Z,99345.53
2022-11-16T15:48:45.445Z,99341.41
2022-11-16T15:51:17.557Z,99337.06
2022-11-16T15:53:45.405Z,99347.28
2022-11-16T15:56:20.292Z,99349.41
2022-11-16T15:58:48.850Z,99346.31
2022-11-16T16:01:16.291Z,99339.47
2022-11-16T16:04:07.021Z,99341.59
2022-11-16T16:06:54.260Z,99353.59
2022-11-16T16:09:36.754Z,99343.28
2022-11-16T16:12:22.529Z,99337.88
2022-11-16T16:14:50.904Z,99343.28
2022-11-16T16:17:25.757Z,99346.56
2022-11-16T16:20:00.644Z,99343.66
2022-11-16T16:22:35.671Z,99336.84
2022-11-16T16:25:04.058Z,99338.91
2022-11-16T16:27:31.868Z,99332.28
2022-11-16T16:30:02.745Z,99321.91
2022-11-16T16:32:30.128Z,99319.63
2022-11-16T16:34:58.684Z,99323.81
2022-11-16T16:37:27.118Z,99322.34
2022-11-16T16:39:53.500Z,99317.59
2022-11-16T16:42:20.225Z,99310.13
2022-11-16T16:44:47.797Z,99319.66
2022-11-16T16:47:15.143Z,99322.97
2022-11-16T16:49:41.990Z,99309.28
2022-11-16T16:52:11.788Z,99307.00
2022-11-16T16:54:38.544Z,99296.03
2022-11-16T16:57:04.874Z,99298.50
2022-11-16T16:59:31.572Z,99303.50
2022-11-16T17:01:58.748Z,99304.09
2022-11-16T17:04:25.766Z,99299.13
2022-11-16T17:06:52.965Z,99289.81
2022-11-16T17:09:19.648Z,99291.25
2022-11-16T17:11:47.615Z,99293.50
2022-11-16T17:14:14.010Z,99290.19
2022-11-16T17:16:40.390Z,99289.78
2022-11-16T17:19:06.785Z,99284.81
2022-11-16T17:21:33.204Z,99280.84
2022-11-16T17:23:59.580Z,99278.56
2022-11-16T17:26:29.280Z,99276.13
2022-11-16T17:28:57.009Z,99278.34
2022-11-16T17:31:24.542Z,99271.34
2022-11-16T17:33:51.203Z,99269.06
2022-11-16T17:36:18.056Z,99269.06
2022-11-16T17:38:44.895Z,99265.72
2022-11-16T17:41:14.156Z,99256.22
2022-11-16T17:43:42.201Z,99251.03
2022-11-16T17:46:14.283Z,99260.13
2022-11-16T17:48:43.181Z,99270.25
2022-11-16T17:51:11.907Z,99268.59
2022-11-16T17:53:39.926Z,99266.13
2022-11-16T17:56:07.057Z,99260.09
2022-11-16T17:58:34.149Z,99254.13
2022-11-16T18:01:00.701Z,99252.25
2022-11-16T18:03:28.347Z,99254.13
2022-11-16T18:06:22.287Z,99254.13
2022-11-16T18:08:49.058Z,99246.25
2022-11-16T18:11:18.539Z,99243.38
2022-11-16T18:13:45.799Z,99253.28
2022-11-16T18:16:17.873Z,99248.75
2022-11-16T18:18:46.242Z,99249.75
2022-11-16T18:21:19.883Z,99244.59
2022-11-16T18:23:46.895Z,99250.81
2022-11-16T18:26:16.184Z,99252.66
2022-11-16T18:28:45.156Z,99251.81
2022-11-16T18:31:15.302Z,99252.66
2022-11-16T18:33:42.319Z,99257.19
2022-11-16T18:36:09.877Z,99248.31
2022-11-16T18:38:36.438Z,99242.09
2022-11-16T18:41:05.825Z,99248.13
2022-11-16T18:43:34.240Z,99244.59
2022-11-16T18:46:01.102Z,99240.88
2022-11-16T18:48:27.623Z,99235.50
2022-11-16T18:51:02.028Z,99242.53
2022-11-16T18:53:29.544Z,99250.59
2022-11-16T18:55:58.004Z,99252.44
2022-11-16T18:58:49.228Z,99240.69
2022-11-16T19:01:14.762Z,99242.97
2022-11-16T19:03:41.323Z,99249.97
2022-11-16T19:06:09.491Z,99245.44
2022-11-16T19:08:37.957Z,99245.44
2022-11-16T19:11:23.263Z,99240.06
2022-11-16T19:13:53.954Z,99239.47
2022-11-16T19:16:20.635Z,99234.47
2022-11-16T19:18:46.967Z,99230.53
2022-11-16T19:21:15.375Z,99233.63
2022-11-16T19:23:44.468Z,99231.34
2022-11-16T19:26:12.878Z,99226.53
2022-11-16T19:28:44.014Z,99223.41
2022-11-16T19:31:28.793Z,99224.03
2022-11-16T19:33:59.685Z,99218.22
2022-11-16T19:36:27.889Z,99220.31
2022-11-16T19:38:54.757Z,99214.31
2022-11-16T19:41:22.610Z,99206.44
2022-11-16T19:43:52.354Z,99198.59
2022-11-16T19:46:24.366Z,99204.97
2022-11-16T19:48:51.741Z,99201.06
2022-11-16T19:51:20.874Z,99193.00
2022-11-16T19:53:47.805Z,99205.41
2022-11-16T19:56:16.557Z,99199.84
2022-11-16T19:58:43.412Z,99199.00
2022-11-16T20:01:12.177Z,99197.97
2022-11-16T20:03:40.343Z,99197.13
2022-11-16T20:06:11.081Z,99199.00
2022-11-16T20:08:39.001Z,99196.50
2022-11-16T20:11:16.851Z,99189.09
2022-11-16T20:13:43.279Z,99188.44
2022-11-16T20:16:11.316Z,99183.72
2022-11-16T20:18:39.232Z,99180.84
2022-11-16T20:21:06.678Z,99181.47
2022-11-16T20:23:37.644Z,99175.47
2022-11-16T20:26:09.761Z,99167.63
2022-11-16T20:28:41.302Z,99164.38
2022-11-16T20:31:11.291Z,99170.16
2022-11-16T20:33:38.212Z,99162.53
2022-11-16T20:36:07.938Z,99161.91
2022-11-16T20:38:35.917Z,99166.88
2022-11-16T20:41:09.572Z,99165.66
2022-11-16T20:43:36.690Z,99165.44
2022-11-16T20:46:03.348Z,99163.56
2022-11-16T20:48:29.681Z,99160.06
2022-11-16T20:50:56.029Z,99153.84
2022-11-16T20:53:22.554Z,99154.91
2022-11-16T20:55:50.032Z,99141.84
2022-11-16T20:58:22.459Z,99141.25
2022-11-16T21:00:49.773Z,99140.41
2022-11-16T21:03:17.055Z,99141.25
2022-11-16T21:05:45.277Z,99147.22
2022-11-16T21:08:12.683Z,99151.59
2022-11-16T21:10:39.792Z,99136.28
2022-11-16T21:13:26.184Z,99142.06
2022-11-16T21:15:56.548Z,99124.28
2022-11-16T21:18:29.337Z,99125.72
2022-11-16T21:21:01.360Z,99120.97
2022-11-16T21:23:29.475Z,99114.59
2022-11-16T21:25:56.039Z,99107.97
2022-11-16T21:28:25.461Z,99115.63
2022-11-16T21:30:59.722Z,99109.81
2022-11-16T21:33:26.322Z,99110.22
2022-11-16T21:35:54.321Z,99109.81
2022-11-16T21:38:21.996Z,99112.91
2022-11-16T21:40:48.856Z,99100.69
2022-11-16T21:43:15.869Z,99099.25
2022-11-16T21:45:45.682Z,99086.19
2022-11-16T21:48:12.522Z,99085.78
2022-11-16T21:50:39.482Z,99085.38
2022-11-16T21:53:06.990Z,99085.78
2022-11-16T21:55:33.757Z,99081.03
2022-11-16T21:58:00.622Z,99079.53
2022-11-16T22:00:27.501Z,99068.78
2022-11-16T22:02:53.883Z,99068.59
2022-11-16T22:05:39.494Z,99062.97
2022-11-16T22:08:11.532Z,99054.72
2022-11-16T22:10:37.882Z,99054.72
2022-11-16T22:13:04.487Z,99056.34
2022-11-16T22:15:30.890Z,99051.81
2022-11-16T22:17:57.222Z,99049.34
2022-11-16T22:20:23.657Z,99044.78
2022-11-16T22:22:50.018Z,99045.59
2022-11-16T22:25:16.490Z,99034.00
2022-11-16T22:28:06.036Z,99035.06
2022-11-16T22:30:32.675Z,99016.22
2022-11-16T22:32:59.096Z,99017.25
2022-11-16T22:35:25.442Z,99024.50
2022-11-16T22:37:51.754Z,99005.06
2022-11-16T22:40:18.136Z,99012.28
2022-11-16T22:42:44.538Z,99001.75
2022-11-16T22:45:10.890Z,98992.03
2022-11-16T22:47:37.423Z,98990.59
2022-11-16T22:50:04.114Z,98989.13
2022-11-16T22:52:30.514Z,98986.88
2022-11-16T22:54:56.846Z,98977.38
2022-11-16T22:57:23.233Z,98974.91
2022-11-16T22:59:49.558Z,98967.03
2022-11-16T23:02:15.925Z,98965.41
2022-11-16T23:04:42.274Z,98959.22
2022-11-16T23:07:08.660Z,98967.03
2022-11-16T23:09:35.145Z,98966.00
2022-11-16T23:12:20.097Z,98964.97
2022-11-16T23:15:05.011Z,98940.34
2022-11-16T23:17:31.390Z,98945.50
2022-11-16T23:20:24.310Z,98934.53
2022-11-16T23:23:09.259Z,98929.75
2022-11-16T23:25:54.557Z,98916.94
2022-11-16T23:28:21.329Z,98921.25
2022-11-16T23:30:47.722Z,98920.25
2022-11-16T23:33:14.396Z,98910.06
2022-11-16T23:35:40.773Z,98912.75
2022-11-16T23:38:07.823Z,98893.72
2022-11-16T23:40:39.730Z,98890.78
2022-11-16T23:43:25.473Z,98889.78
2022-11-16T23:45:51.932Z,98883.34
2022-11-16T23:48:18.658Z,98859.13
2022-11-16T23:50:46.175Z,98860.78
2022-11-16T23:53:12.858Z,98855.19
2022-11-16T23:55:39.845Z,98848.97
2022-11-16T23:58:10.990Z,98844.22
